sensor_id;sensor_type;location;lat;lon;timestamp;temperature;humidity
11505;DHT22;5809;53.262;10.408;2023-06-04T00:02:11;10.50;99.90
11505;DHT22;5809;53.262;10.408;2023-06-04T00:04:38;10.50;99.90
11505;DHT22;5809;53.262;10.408;2023-06-04T00:07:05;10.40;99.90
11505;DHT22;5809;53.262;10.408;2023-06-04T00:09:32;10.30;99.90
11505;DHT22;5809;53.262;10.408;2023-06-04T00:11:59;10.30;99.90
11505;DHT22;5809;53.262;10.408;2023-06-04T00:14:26;10.30;99.90
11505;DHT22;5809;53.262;10.408;2023-06-04T00:16:54;10.20;99.90
11505;DHT22;5809;53.262;10.408;2023-06-04T00:21:48;10.00;99.90
11505;DHT22;5809;53.262;10.408;2023-06-04T00:24:16;9.90;99.90
11505;DHT22;5809;53.262;10.408;2023-06-04T00:26:43;9.80;99.90
11505;DHT22;5809;53.262;10.408;2023-06-04T00:29:10;9.70;99.90
11505;DHT22;5809;53.262;10.408;2023-06-04T00:34:06;9.50;99.90
11505;DHT22;5809;53.262;10.408;2023-06-04T00:36:33;9.40;99.90
11505;DHT22;5809;53.262;10.408;2023-06-04T00:38:59;9.40;99.90
11505;DHT22;5809;53.262;10.408;2023-06-04T00:43:54;9.30;99.90
11505;DHT22;5809;53.262;10.408;2023-06-04T00:46:23;9.20;99.90
11505;DHT22;5809;53.262;10.408;2023-06-04T00:48:51;9.20;99.90
11505;DHT22;5809;53.262;10.408;2023-06-04T00:51:20;9.20;99.90
11505;DHT22;5809;53.262;10.408;2023-06-04T00:53:47;9.20;99.90
11505;DHT22;5809;53.262;10.408;2023-06-04T00:56:14;9.20;99.90
11505;DHT22;5809;53.262;10.408;2023-06-04T00:58:41;9.20;99.90
11505;DHT22;5809;53.262;10.408;2023-06-04T01:01:15;9.20;99.90
11505;DHT22;5809;53.262;10.408;2023-06-04T01:03:47;9.20;99.90
11505;DHT22;5809;53.262;10.408;2023-06-04T01:06:23;9.20;99.90
11505;DHT22;5809;53.262;10.408;2023-06-04T01:08:53;9.20;99.90
11505;DHT22;5809;53.262;10.408;2023-06-04T01:11:31;9.10;99.90
11505;DHT22;5809;53.262;10.408;2023-06-04T01:13:58;9.20;99.90
11505;DHT22;5809;53.262;10.408;2023-06-04T01:16:26;9.10;99.90
11505;DHT22;5809;53.262;10.408;2023-06-04T01:18:56;9.10;99.90
11505;DHT22;5809;53.262;10.408;2023-06-04T01:21:27;9.10;99.90
11505;DHT22;5809;53.262;10.408;2023-06-04T01:23:57;9.00;99.90
11505;DHT22;5809;53.262;10.408;2023-06-04T01:26:29;9.00;99.90
11505;DHT22;5809;53.262;10.408;2023-06-04T01:28:57;8.90;99.90
11505;DHT22;5809;53.262;10.408;2023-06-04T01:31:25;8.90;99.90
11505;DHT22;5809;53.262;10.408;2023-06-04T01:33:52;8.70;99.90
11505;DHT22;5809;53.262;10.408;2023-06-04T01:38:48;8.80;99.90
11505;DHT22;5809;53.262;10.408;2023-06-04T01:41:15;8.70;99.90
11505;DHT22;5809;53.262;10.408;2023-06-04T01:43:42;8.70;99.90
11505;DHT22;5809;53.262;10.408;2023-06-04T01:46:09;8.70;99.90
11505;DHT22;5809;53.262;10.408;2023-06-04T01:48:35;8.60;99.90
11505;DHT22;5809;53.262;10.408;2023-06-04T01:51:03;8.50;99.90
11505;DHT22;5809;53.262;10.408;2023-06-04T01:53:31;8.50;99.90
11505;DHT22;5809;53.262;10.408;2023-06-04T01:55:59;8.50;99.90
11505;DHT22;5809;53.262;10.408;2023-06-04T01:58:26;8.50;99.90
11505;DHT22;5809;53.262;10.408;2023-06-04T02:00:54;8.50;99.90
11505;DHT22;5809;53.262;10.408;2023-06-04T02:03:26;8.50;99.90
11505;DHT22;5809;53.262;10.408;2023-06-04T02:05:53;8.50;99.90
11505;DHT22;5809;53.262;10.408;2023-06-04T02:08:20;8.50;99.90
11505;DHT22;5809;53.262;10.408;2023-06-04T02:10:51;8.50;99.90
11505;DHT22;5809;53.262;10.408;2023-06-04T02:13:20;8.50;99.90
11505;DHT22;5809;53.262;10.408;2023-06-04T02:15:47;8.50;99.90
11505;DHT22;5809;53.262;10.408;2023-06-04T02:18:16;8.40;99.90
11505;DHT22;5809;53.262;10.408;2023-06-04T02:20:43;8.40;99.90
11505;DHT22;5809;53.262;10.408;2023-06-04T02:23:11;8.40;99.90
11505;DHT22;5809;53.262;10.408;2023-06-04T02:28:06;8.40;99.90
11505;DHT22;5809;53.262;10.408;2023-06-04T02:30:34;8.40;99.90
11505;DHT22;5809;53.262;10.408;2023-06-04T02:33:01;8.30;99.90
11505;DHT22;5809;53.262;10.408;2023-06-04T02:35:30;8.20;99.90
11505;DHT22;5809;53.262;10.408;2023-06-04T02:37:57;8.10;99.90
11505;DHT22;5809;53.262;10.408;2023-06-04T02:40:24;8.10;99.90
11505;DHT22;5809;53.262;10.408;2023-06-04T02:42:52;8.10;99.90
11505;DHT22;5809;53.262;10.408;2023-06-04T02:45:19;8.10;99.90
11505;DHT22;5809;53.262;10.408;2023-06-04T02:47:48;8.10;99.90
11505;DHT22;5809;53.262;10.408;2023-06-04T02:52:42;8.00;99.90
11505;DHT22;5809;53.262;10.408;2023-06-04T02:55:10;8.00;99.90
11505;DHT22;5809;53.262;10.408;2023-06-04T02:57:39;8.00;99.90
11505;DHT22;5809;53.262;10.408;2023-06-04T03:00:08;8.00;99.90
11505;DHT22;5809;53.262;10.408;2023-06-04T03:02:39;7.90;99.90
11505;DHT22;5809;53.262;10.408;2023-06-04T03:05:08;7.90;99.90
11505;DHT22;5809;53.262;10.408;2023-06-04T03:07:36;7.90;99.90
11505;DHT22;5809;53.262;10.408;2023-06-04T03:10:03;7.90;99.90
11505;DHT22;5809;53.262;10.408;2023-06-04T03:12:30;7.90;99.90
11505;DHT22;5809;53.262;10.408;2023-06-04T03:17:26;7.90;99.90
11505;DHT22;5809;53.262;10.408;2023-06-04T03:19:52;7.90;99.90
11505;DHT22;5809;53.262;10.408;2023-06-04T03:22:23;7.90;99.90
11505;DHT22;5809;53.262;10.408;2023-06-04T03:24:50;7.90;99.90
11505;DHT22;5809;53.262;10.408;2023-06-04T03:27:17;8.00;99.90
11505;DHT22;5809;53.262;10.408;2023-06-04T03:29:45;8.00;99.90
11505;DHT22;5809;53.262;10.408;2023-06-04T03:39:37;8.00;99.90
11505;DHT22;5809;53.262;10.408;2023-06-04T03:42:04;8.00;99.90
11505;DHT22;5809;53.262;10.408;2023-06-04T03:44:31;8.10;99.90
11505;DHT22;5809;53.262;10.408;2023-06-04T03:49:26;8.10;99.90
11505;DHT22;5809;53.262;10.408;2023-06-04T03:54:21;8.30;99.90
11505;DHT22;5809;53.262;10.408;2023-06-04T03:56:49;8.30;99.90
11505;DHT22;5809;53.262;10.408;2023-06-04T03:59:16;8.40;99.90
11505;DHT22;5809;53.262;10.408;2023-06-04T04:01:43;8.50;99.90
11505;DHT22;5809;53.262;10.408;2023-06-04T04:04:10;8.50;99.90
11505;DHT22;5809;53.262;10.408;2023-06-04T04:09:05;8.70;99.90
11505;DHT22;5809;53.262;10.408;2023-06-04T04:11:32;8.80;99.90
11505;DHT22;5809;53.262;10.408;2023-06-04T04:14:01;8.90;99.90
11505;DHT22;5809;53.262;10.408;2023-06-04T04:16:28;9.00;99.90
11505;DHT22;5809;53.262;10.408;2023-06-04T04:18:55;9.00;99.90
11505;DHT22;5809;53.262;10.408;2023-06-04T04:21:22;9.10;99.90
11505;DHT22;5809;53.262;10.408;2023-06-04T04:23:49;9.20;99.90
11505;DHT22;5809;53.262;10.408;2023-06-04T04:26:17;9.20;99.90
11505;DHT22;5809;53.262;10.408;2023-06-04T04:28:44;9.30;99.90
11505;DHT22;5809;53.262;10.408;2023-06-04T04:31:12;9.40;99.90
11505;DHT22;5809;53.262;10.408;2023-06-04T04:33:40;9.50;99.90
11505;DHT22;5809;53.262;10.408;2023-06-04T04:36:07;9.50;99.90
11505;DHT22;5809;53.262;10.408;2023-06-04T04:38:39;9.60;99.90
11505;DHT22;5809;53.262;10.408;2023-06-04T04:41:06;9.60;99.90
11505;DHT22;5809;53.262;10.408;2023-06-04T04:43:35;9.70;99.90
11505;DHT22;5809;53.262;10.408;2023-06-04T04:46:03;9.80;99.90
11505;DHT22;5809;53.262;10.408;2023-06-04T04:48:31;9.90;99.90
11505;DHT22;5809;53.262;10.408;2023-06-04T04:50:58;10.10;99.90
11505;DHT22;5809;53.262;10.408;2023-06-04T04:53:26;10.20;99.90
11505;DHT22;5809;53.262;10.408;2023-06-04T04:55:52;10.40;99.90
11505;DHT22;5809;53.262;10.408;2023-06-04T04:58:19;10.40;99.90
11505;DHT22;5809;53.262;10.408;2023-06-04T05:00:46;10.60;99.90
11505;DHT22;5809;53.262;10.408;2023-06-04T05:03:14;10.80;99.90
11505;DHT22;5809;53.262;10.408;2023-06-04T05:05:42;11.00;99.90
11505;DHT22;5809;53.262;10.408;2023-06-04T05:08:10;11.30;99.90
11505;DHT22;5809;53.262;10.408;2023-06-04T05:10:37;11.60;99.90
11505;DHT22;5809;53.262;10.408;2023-06-04T05:13:03;11.80;99.90
11505;DHT22;5809;53.262;10.408;2023-06-04T05:15:32;12.10;99.90
11505;DHT22;5809;53.262;10.408;2023-06-04T05:17:59;12.20;99.90
11505;DHT22;5809;53.262;10.408;2023-06-04T05:20:27;12.40;99.90
11505;DHT22;5809;53.262;10.408;2023-06-04T05:22:56;12.60;99.90
11505;DHT22;5809;53.262;10.408;2023-06-04T05:25:23;12.80;99.90
11505;DHT22;5809;53.262;10.408;2023-06-04T05:27:52;13.00;99.90
11505;DHT22;5809;53.262;10.408;2023-06-04T05:30:20;13.10;99.90
11505;DHT22;5809;53.262;10.408;2023-06-04T05:32:47;13.30;99.90
11505;DHT22;5809;53.262;10.408;2023-06-04T05:35:16;13.40;99.90
11505;DHT22;5809;53.262;10.408;2023-06-04T05:37:43;13.70;99.90
11505;DHT22;5809;53.262;10.408;2023-06-04T05:40:12;14.00;99.90
11505;DHT22;5809;53.262;10.408;2023-06-04T05:42:41;14.30;99.90
11505;DHT22;5809;53.262;10.408;2023-06-04T05:45:09;14.50;99.90
11505;DHT22;5809;53.262;10.408;2023-06-04T05:47:36;14.80;99.90
11505;DHT22;5809;53.262;10.408;2023-06-04T05:50:04;15.00;99.90
11505;DHT22;5809;53.262;10.408;2023-06-04T05:52:31;15.20;99.90
11505;DHT22;5809;53.262;10.408;2023-06-04T05:54:58;15.30;99.90
11505;DHT22;5809;53.262;10.408;2023-06-04T05:57:27;15.50;99.90
11505;DHT22;5809;53.262;10.408;2023-06-04T05:59:54;15.60;99.90
11505;DHT22;5809;53.262;10.408;2023-06-04T06:02:20;15.90;99.90
11505;DHT22;5809;53.262;10.408;2023-06-04T06:04:47;16.20;99.90
11505;DHT22;5809;53.262;10.408;2023-06-04T06:07:14;16.40;99.90
11505;DHT22;5809;53.262;10.408;2023-06-04T06:09:41;16.60;99.90
11505;DHT22;5809;53.262;10.408;2023-06-04T06:12:08;16.60;99.90
11505;DHT22;5809;53.262;10.408;2023-06-04T06:14:37;16.70;99.90
11505;DHT22;5809;53.262;10.408;2023-06-04T06:17:04;17.00;99.90
11505;DHT22;5809;53.262;10.408;2023-06-04T06:19:32;17.10;99.90
11505;DHT22;5809;53.262;10.408;2023-06-04T06:21:59;17.40;99.90
11505;DHT22;5809;53.262;10.408;2023-06-04T06:24:26;17.60;99.90
11505;DHT22;5809;53.262;10.408;2023-06-04T06:26:52;17.90;99.90
11505;DHT22;5809;53.262;10.408;2023-06-04T06:29:19;18.30;99.90
11505;DHT22;5809;53.262;10.408;2023-06-04T06:31:48;18.50;99.90
11505;DHT22;5809;53.262;10.408;2023-06-04T06:34:15;18.60;99.90
11505;DHT22;5809;53.262;10.408;2023-06-04T06:36:42;18.60;99.90
11505;DHT22;5809;53.262;10.408;2023-06-04T06:39:10;18.70;99.90
11505;DHT22;5809;53.262;10.408;2023-06-04T06:41:37;18.70;99.90
11505;DHT22;5809;53.262;10.408;2023-06-04T06:44:05;18.90;99.90
11505;DHT22;5809;53.262;10.408;2023-06-04T06:46:32;19.00;99.90
11505;DHT22;5809;53.262;10.408;2023-06-04T06:49:00;19.40;99.90
11505;DHT22;5809;53.262;10.408;2023-06-04T06:51:27;19.50;99.90
11505;DHT22;5809;53.262;10.408;2023-06-04T06:53:54;19.80;99.90
11505;DHT22;5809;53.262;10.408;2023-06-04T06:56:21;20.00;99.90
11505;DHT22;5809;53.262;10.408;2023-06-04T06:58:48;20.10;99.90
11505;DHT22;5809;53.262;10.408;2023-06-04T07:01:15;20.50;99.90
11505;DHT22;5809;53.262;10.408;2023-06-04T07:03:42;20.60;99.90
11505;DHT22;5809;53.262;10.408;2023-06-04T07:06:10;21.10;99.90
11505;DHT22;5809;53.262;10.408;2023-06-04T07:08:37;21.10;99.90
11505;DHT22;5809;53.262;10.408;2023-06-04T07:11:04;21.40;99.90
11505;DHT22;5809;53.262;10.408;2023-06-04T07:13:32;21.60;99.90
11505;DHT22;5809;53.262;10.408;2023-06-04T07:16:01;21.80;99.90
11505;DHT22;5809;53.262;10.408;2023-06-04T07:18:28;21.80;99.90
11505;DHT22;5809;53.262;10.408;2023-06-04T07:20:55;22.00;99.90
11505;DHT22;5809;53.262;10.408;2023-06-04T07:23:23;22.00;99.90
11505;DHT22;5809;53.262;10.408;2023-06-04T07:25:51;22.20;99.90
11505;DHT22;5809;53.262;10.408;2023-06-04T07:28:19;22.50;99.90
11505;DHT22;5809;53.262;10.408;2023-06-04T07:30:46;22.40;99.90
11505;DHT22;5809;53.262;10.408;2023-06-04T07:33:13;22.50;99.90
11505;DHT22;5809;53.262;10.408;2023-06-04T07:35:41;22.60;99.90
11505;DHT22;5809;53.262;10.408;2023-06-04T07:38:08;22.70;99.90
11505;DHT22;5809;53.262;10.408;2023-06-04T07:40:36;22.70;99.90
11505;DHT22;5809;53.262;10.408;2023-06-04T07:43:04;22.80;99.90
11505;DHT22;5809;53.262;10.408;2023-06-04T07:45:31;22.70;99.90
11505;DHT22;5809;53.262;10.408;2023-06-04T07:47:58;22.80;99.90
11505;DHT22;5809;53.262;10.408;2023-06-04T07:50:25;22.90;99.90
11505;DHT22;5809;53.262;10.408;2023-06-04T07:52:52;23.00;99.90
11505;DHT22;5809;53.262;10.408;2023-06-04T07:55:19;23.40;99.90
11505;DHT22;5809;53.262;10.408;2023-06-04T07:57:48;23.80;99.90
11505;DHT22;5809;53.262;10.408;2023-06-04T08:00:15;24.10;99.90
11505;DHT22;5809;53.262;10.408;2023-06-04T08:02:43;24.30;99.90
11505;DHT22;5809;53.262;10.408;2023-06-04T08:05:10;24.50;99.90
11505;DHT22;5809;53.262;10.408;2023-06-04T08:07:39;24.70;99.90
11505;DHT22;5809;53.262;10.408;2023-06-04T08:10:07;25.00;99.90
11505;DHT22;5809;53.262;10.408;2023-06-04T08:12:34;25.30;99.90
11505;DHT22;5809;53.262;10.408;2023-06-04T08:15:03;25.50;99.90
11505;DHT22;5809;53.262;10.408;2023-06-04T08:17:31;25.20;99.90
11505;DHT22;5809;53.262;10.408;2023-06-04T08:19:58;25.30;99.90
11505;DHT22;5809;53.262;10.408;2023-06-04T08:22:25;25.70;99.90
11505;DHT22;5809;53.262;10.408;2023-06-04T08:24:53;25.50;99.90
11505;DHT22;5809;53.262;10.408;2023-06-04T08:27:20;25.40;99.90
11505;DHT22;5809;53.262;10.408;2023-06-04T08:29:47;25.20;99.90
11505;DHT22;5809;53.262;10.408;2023-06-04T08:32:16;25.00;99.90
11505;DHT22;5809;53.262;10.408;2023-06-04T08:34:43;25.40;99.90
11505;DHT22;5809;53.262;10.408;2023-06-04T08:37:10;25.90;99.90
11505;DHT22;5809;53.262;10.408;2023-06-04T08:39:37;26.10;99.90
11505;DHT22;5809;53.262;10.408;2023-06-04T08:42:05;26.10;99.90
11505;DHT22;5809;53.262;10.408;2023-06-04T08:44:33;26.10;99.90
11505;DHT22;5809;53.262;10.408;2023-06-04T08:47:03;26.20;99.90
11505;DHT22;5809;53.262;10.408;2023-06-04T08:49:33;26.50;99.90
11505;DHT22;5809;53.262;10.408;2023-06-04T08:52:01;26.70;99.90
11505;DHT22;5809;53.262;10.408;2023-06-04T08:54:28;26.20;99.90
11505;DHT22;5809;53.262;10.408;2023-06-04T08:56:56;25.80;99.90
11505;DHT22;5809;53.262;10.408;2023-06-04T08:59:24;26.10;99.90
11505;DHT22;5809;53.262;10.408;2023-06-04T09:01:52;26.40;99.90
11505;DHT22;5809;53.262;10.408;2023-06-04T09:04:20;26.60;99.90
11505;DHT22;5809;53.262;10.408;2023-06-04T09:06:49;26.80;99.90
11505;DHT22;5809;53.262;10.408;2023-06-04T09:09:17;27.20;99.90
11505;DHT22;5809;53.262;10.408;2023-06-04T09:11:49;27.60;99.90
11505;DHT22;5809;53.262;10.408;2023-06-04T09:14:17;27.10;99.90
11505;DHT22;5809;53.262;10.408;2023-06-04T09:16:46;26.90;99.90
11505;DHT22;5809;53.262;10.408;2023-06-04T09:19:13;27.50;99.90
11505;DHT22;5809;53.262;10.408;2023-06-04T09:21:49;27.20;99.90
11505;DHT22;5809;53.262;10.408;2023-06-04T09:24:17;27.30;99.90
11505;DHT22;5809;53.262;10.408;2023-06-04T09:26:44;27.40;99.90
11505;DHT22;5809;53.262;10.408;2023-06-04T09:29:11;27.80;99.90
11505;DHT22;5809;53.262;10.408;2023-06-04T09:31:38;28.10;99.90
11505;DHT22;5809;53.262;10.408;2023-06-04T09:34:06;28.00;99.90
11505;DHT22;5809;53.262;10.408;2023-06-04T09:36:33;28.40;99.90
11505;DHT22;5809;53.262;10.408;2023-06-04T09:39:03;28.80;99.90
11505;DHT22;5809;53.262;10.408;2023-06-04T09:41:30;27.70;99.90
11505;DHT22;5809;53.262;10.408;2023-06-04T09:44:01;28.00;99.90
11505;DHT22;5809;53.262;10.408;2023-06-04T09:46:30;28.40;99.90
11505;DHT22;5809;53.262;10.408;2023-06-04T09:49:01;28.60;99.90
11505;DHT22;5809;53.262;10.408;2023-06-04T09:51:29;28.70;99.90
11505;DHT22;5809;53.262;10.408;2023-06-04T09:53:57;28.70;99.90
11505;DHT22;5809;53.262;10.408;2023-06-04T09:56:26;28.60;99.90
11505;DHT22;5809;53.262;10.408;2023-06-04T09:58:55;28.90;99.90
11505;DHT22;5809;53.262;10.408;2023-06-04T10:01:23;29.20;99.90
11505;DHT22;5809;53.262;10.408;2023-06-04T10:03:51;29.60;99.90
11505;DHT22;5809;53.262;10.408;2023-06-04T10:06:19;29.20;99.90
11505;DHT22;5809;53.262;10.408;2023-06-04T10:08:48;29.30;99.90
11505;DHT22;5809;53.262;10.408;2023-06-04T10:11:20;29.50;99.90
11505;DHT22;5809;53.262;10.408;2023-06-04T10:13:53;29.60;99.90
11505;DHT22;5809;53.262;10.408;2023-06-04T10:16:23;29.90;99.90
11505;DHT22;5809;53.262;10.408;2023-06-04T10:18:52;29.90;99.90
11505;DHT22;5809;53.262;10.408;2023-06-04T10:21:21;29.80;99.90
11505;DHT22;5809;53.262;10.408;2023-06-04T10:23:50;29.50;99.90
11505;DHT22;5809;53.262;10.408;2023-06-04T10:26:17;28.80;99.90
11505;DHT22;5809;53.262;10.408;2023-06-04T10:28:44;28.60;99.90
11505;DHT22;5809;53.262;10.408;2023-06-04T10:31:13;28.80;99.90
11505;DHT22;5809;53.262;10.408;2023-06-04T10:33:40;29.30;99.90
11505;DHT22;5809;53.262;10.408;2023-06-04T10:36:17;29.50;99.90
11505;DHT22;5809;53.262;10.408;2023-06-04T10:38:46;30.10;99.90
11505;DHT22;5809;53.262;10.408;2023-06-04T10:41:16;30.60;99.90
11505;DHT22;5809;53.262;10.408;2023-06-04T10:43:45;30.50;99.90
11505;DHT22;5809;53.262;10.408;2023-06-04T10:46:14;30.20;99.90
11505;DHT22;5809;53.262;10.408;2023-06-04T10:48:48;30.10;99.90
11505;DHT22;5809;53.262;10.408;2023-06-04T10:51:17;30.20;99.90
11505;DHT22;5809;53.262;10.408;2023-06-04T10:53:55;30.00;99.90
11505;DHT22;5809;53.262;10.408;2023-06-04T10:56:25;30.70;99.90
11505;DHT22;5809;53.262;10.408;2023-06-04T10:58:52;30.90;99.90
11505;DHT22;5809;53.262;10.408;2023-06-04T11:01:25;31.10;99.90
11505;DHT22;5809;53.262;10.408;2023-06-04T11:03:52;31.50;99.90
11505;DHT22;5809;53.262;10.408;2023-06-04T11:06:19;32.10;99.90
11505;DHT22;5809;53.262;10.408;2023-06-04T11:08:47;32.10;99.90
11505;DHT22;5809;53.262;10.408;2023-06-04T11:11:15;32.50;99.90
11505;DHT22;5809;53.262;10.408;2023-06-04T11:13:43;32.50;99.90
11505;DHT22;5809;53.262;10.408;2023-06-04T11:16:16;32.30;99.90
11505;DHT22;5809;53.262;10.408;2023-06-04T11:18:54;31.90;99.90
11505;DHT22;5809;53.262;10.408;2023-06-04T11:21:21;32.00;99.90
11505;DHT22;5809;53.262;10.408;2023-06-04T11:23:48;31.50;99.90
11505;DHT22;5809;53.262;10.408;2023-06-04T11:26:16;30.70;99.90
11505;DHT22;5809;53.262;10.408;2023-06-04T11:28:43;30.90;99.90
11505;DHT22;5809;53.262;10.408;2023-06-04T11:31:10;30.90;99.90
11505;DHT22;5809;53.262;10.408;2023-06-04T11:33:47;31.10;99.90
11505;DHT22;5809;53.262;10.408;2023-06-04T11:36:23;31.30;99.90
11505;DHT22;5809;53.262;10.408;2023-06-04T11:38:57;31.00;99.90
11505;DHT22;5809;53.262;10.408;2023-06-04T11:41:24;31.20;99.90
11505;DHT22;5809;53.262;10.408;2023-06-04T11:43:53;30.90;99.90
11505;DHT22;5809;53.262;10.408;2023-06-04T11:46:20;30.80;99.90
11505;DHT22;5809;53.262;10.408;2023-06-04T11:48:50;31.30;99.90
11505;DHT22;5809;53.262;10.408;2023-06-04T11:51:19;31.40;99.90
11505;DHT22;5809;53.262;10.408;2023-06-04T11:53:46;32.20;99.90
11505;DHT22;5809;53.262;10.408;2023-06-04T11:56:13;32.20;99.90
11505;DHT22;5809;53.262;10.408;2023-06-04T11:58:41;31.80;99.90
11505;DHT22;5809;53.262;10.408;2023-06-04T12:01:08;32.00;99.90
11505;DHT22;5809;53.262;10.408;2023-06-04T12:03:35;32.30;99.90
11505;DHT22;5809;53.262;10.408;2023-06-04T12:06:12;32.30;99.90
11505;DHT22;5809;53.262;10.408;2023-06-04T12:08:47;32.00;99.90
11505;DHT22;5809;53.262;10.408;2023-06-04T12:11:26;31.70;99.90
11505;DHT22;5809;53.262;10.408;2023-06-04T12:13:54;32.00;99.90
11505;DHT22;5809;53.262;10.408;2023-06-04T12:16:21;32.00;99.90
11505;DHT22;5809;53.262;10.408;2023-06-04T12:18:48;29.60;99.90
11505;DHT22;5809;53.262;10.408;2023-06-04T12:21:22;30.80;99.90
11505;DHT22;5809;53.262;10.408;2023-06-04T12:23:53;30.20;99.90
11505;DHT22;5809;53.262;10.408;2023-06-04T12:26:21;30.60;99.90
11505;DHT22;5809;53.262;10.408;2023-06-04T12:29:08;31.50;99.90
11505;DHT22;5809;53.262;10.408;2023-06-04T12:31:36;32.10;99.90
11505;DHT22;5809;53.262;10.408;2023-06-04T12:34:03;33.10;99.90
11505;DHT22;5809;53.262;10.408;2023-06-04T12:36:31;33.60;99.90
11505;DHT22;5809;53.262;10.408;2023-06-04T12:39:01;33.50;99.90
11505;DHT22;5809;53.262;10.408;2023-06-04T12:41:29;34.00;99.90
11505;DHT22;5809;53.262;10.408;2023-06-04T12:43:56;33.90;99.90
11505;DHT22;5809;53.262;10.408;2023-06-04T12:46:24;34.10;99.90
11505;DHT22;5809;53.262;10.408;2023-06-04T12:48:52;34.00;99.90
11505;DHT22;5809;53.262;10.408;2023-06-04T12:51:20;32.60;99.90
11505;DHT22;5809;53.262;10.408;2023-06-04T12:53:48;33.10;99.90
11505;DHT22;5809;53.262;10.408;2023-06-04T12:56:16;33.70;99.90
11505;DHT22;5809;53.262;10.408;2023-06-04T12:58:43;34.10;99.90
11505;DHT22;5809;53.262;10.408;2023-06-04T13:01:11;34.10;99.90
11505;DHT22;5809;53.262;10.408;2023-06-04T13:03:41;34.30;99.90
11505;DHT22;5809;53.262;10.408;2023-06-04T13:06:08;33.70;99.90
11505;DHT22;5809;53.262;10.408;2023-06-04T13:08:36;33.70;99.90
11505;DHT22;5809;53.262;10.408;2023-06-04T13:11:07;33.70;99.90
11505;DHT22;5809;53.262;10.408;2023-06-04T13:13:35;33.90;99.90
11505;DHT22;5809;53.262;10.408;2023-06-04T13:16:04;34.40;99.90
11505;DHT22;5809;53.262;10.408;2023-06-04T13:18:31;34.70;99.90
11505;DHT22;5809;53.262;10.408;2023-06-04T13:20:58;34.50;99.90
11505;DHT22;5809;53.262;10.408;2023-06-04T13:23:25;34.20;99.90
11505;DHT22;5809;53.262;10.408;2023-06-04T13:25:52;34.10;99.90
11505;DHT22;5809;53.262;10.408;2023-06-04T13:28:20;34.10;99.90
11505;DHT22;5809;53.262;10.408;2023-06-04T13:30:47;34.30;99.90
11505;DHT22;5809;53.262;10.408;2023-06-04T13:33:14;33.60;99.90
11505;DHT22;5809;53.262;10.408;2023-06-04T13:35:42;33.50;99.90
11505;DHT22;5809;53.262;10.408;2023-06-04T13:38:10;33.60;99.90
11505;DHT22;5809;53.262;10.408;2023-06-04T13:40:38;33.70;99.90
11505;DHT22;5809;53.262;10.408;2023-06-04T13:43:05;33.80;99.90
11505;DHT22;5809;53.262;10.408;2023-06-04T13:45:34;34.00;99.90
11505;DHT22;5809;53.262;10.408;2023-06-04T13:48:01;34.30;99.90
11505;DHT22;5809;53.262;10.408;2023-06-04T13:50:31;34.20;99.90
11505;DHT22;5809;53.262;10.408;2023-06-04T13:52:58;33.60;99.90
11505;DHT22;5809;53.262;10.408;2023-06-04T13:55:25;33.70;99.90
11505;DHT22;5809;53.262;10.408;2023-06-04T13:57:52;33.50;99.90
11505;DHT22;5809;53.262;10.408;2023-06-04T14:00:19;33.90;99.90
11505;DHT22;5809;53.262;10.408;2023-06-04T14:02:48;33.90;99.90
11505;DHT22;5809;53.262;10.408;2023-06-04T14:05:16;33.60;99.90
11505;DHT22;5809;53.262;10.408;2023-06-04T14:07:43;33.20;99.90
11505;DHT22;5809;53.262;10.408;2023-06-04T14:10:11;33.50;99.90
11505;DHT22;5809;53.262;10.408;2023-06-04T14:12:38;33.30;99.90
11505;DHT22;5809;53.262;10.408;2023-06-04T14:15:07;33.20;99.90
11505;DHT22;5809;53.262;10.408;2023-06-04T14:17:34;33.20;99.90
11505;DHT22;5809;53.262;10.408;2023-06-04T14:20:04;33.30;99.90
11505;DHT22;5809;53.262;10.408;2023-06-04T14:22:33;33.50;99.90
11505;DHT22;5809;53.262;10.408;2023-06-04T14:25:00;33.50;99.90
11505;DHT22;5809;53.262;10.408;2023-06-04T14:27:27;33.30;99.90
11505;DHT22;5809;53.262;10.408;2023-06-04T14:29:55;32.90;99.90
11505;DHT22;5809;53.262;10.408;2023-06-04T14:32:22;32.50;99.90
11505;DHT22;5809;53.262;10.408;2023-06-04T14:34:49;32.70;99.90
11505;DHT22;5809;53.262;10.408;2023-06-04T14:37:17;33.20;99.90
11505;DHT22;5809;53.262;10.408;2023-06-04T14:39:45;32.60;99.90
11505;DHT22;5809;53.262;10.408;2023-06-04T14:42:12;31.50;99.90
11505;DHT22;5809;53.262;10.408;2023-06-04T14:44:39;30.10;99.90
11505;DHT22;5809;53.262;10.408;2023-06-04T14:47:06;29.10;99.90
11505;DHT22;5809;53.262;10.408;2023-06-04T14:49:33;28.40;99.90
11505;DHT22;5809;53.262;10.408;2023-06-04T14:52:00;27.70;99.90
11505;DHT22;5809;53.262;10.408;2023-06-04T14:54:29;27.40;99.90
11505;DHT22;5809;53.262;10.408;2023-06-04T14:56:56;27.00;99.90
11505;DHT22;5809;53.262;10.408;2023-06-04T14:59:23;26.80;99.90
11505;DHT22;5809;53.262;10.408;2023-06-04T15:01:50;26.60;99.90
11505;DHT22;5809;53.262;10.408;2023-06-04T15:04:17;26.40;99.90
11505;DHT22;5809;53.262;10.408;2023-06-04T15:06:43;26.30;99.90
11505;DHT22;5809;53.262;10.408;2023-06-04T15:09:10;26.20;99.90
11505;DHT22;5809;53.262;10.408;2023-06-04T15:11:39;26.20;99.90
11505;DHT22;5809;53.262;10.408;2023-06-04T15:14:06;26.10;99.90
11505;DHT22;5809;53.262;10.408;2023-06-04T15:16:33;26.00;99.90
11505;DHT22;5809;53.262;10.408;2023-06-04T15:19:00;26.00;99.90
11505;DHT22;5809;53.262;10.408;2023-06-04T15:21:26;25.70;99.90
11505;DHT22;5809;53.262;10.408;2023-06-04T15:23:53;25.70;99.90
11505;DHT22;5809;53.262;10.408;2023-06-04T15:26:21;25.60;99.90
11505;DHT22;5809;53.262;10.408;2023-06-04T15:28:51;25.60;99.90
11505;DHT22;5809;53.262;10.408;2023-06-04T15:31:18;25.60;99.90
11505;DHT22;5809;53.262;10.408;2023-06-04T15:33:45;25.50;99.90
11505;DHT22;5809;53.262;10.408;2023-06-04T15:36:12;25.40;99.90
11505;DHT22;5809;53.262;10.408;2023-06-04T15:38:39;25.40;99.90
11505;DHT22;5809;53.262;10.408;2023-06-04T15:41:06;25.50;99.90
11505;DHT22;5809;53.262;10.408;2023-06-04T15:43:33;25.40;99.90
11505;DHT22;5809;53.262;10.408;2023-06-04T15:46:01;25.30;99.90
11505;DHT22;5809;53.262;10.408;2023-06-04T15:48:28;25.30;99.90
11505;DHT22;5809;53.262;10.408;2023-06-04T15:50:56;25.20;99.90
11505;DHT22;5809;53.262;10.408;2023-06-04T15:53:23;25.20;99.90
11505;DHT22;5809;53.262;10.408;2023-06-04T15:55:50;25.20;99.90
11505;DHT22;5809;53.262;10.408;2023-06-04T15:58:17;25.20;99.90
11505;DHT22;5809;53.262;10.408;2023-06-04T16:00:44;25.00;99.90
11505;DHT22;5809;53.262;10.408;2023-06-04T16:03:12;24.90;99.90
11505;DHT22;5809;53.262;10.408;2023-06-04T16:05:39;24.80;99.90
11505;DHT22;5809;53.262;10.408;2023-06-04T16:08:06;24.70;99.90
11505;DHT22;5809;53.262;10.408;2023-06-04T16:10:33;24.80;99.90
11505;DHT22;5809;53.262;10.408;2023-06-04T16:13:00;24.60;99.90